Latest Weather Observations for Truscott

IDD60801

Issued at 8:21 pm CST Wednesday 5 August 2020 (issued every 10 minutes, with the page automatically refreshed every 10 minutes)

About weather observations | Map of weather stations | Latest weather observations for NT | Other Formats
Station Details ID: 001020 Name: TRUSCOTT Lat: -14.09 Lon: 126.39 Height: 51.0 m
Data from the previous 72 hours. | See also: Recent months at Truscott
Date/Time
CST
Temp
°C
App
Temp
°C
Dew
Point
°C
Rel
Hum
%
Delta-T
°C
Wind Press
QNH
hPa
Press
MSL
hPa
Rain since
9am
mm
Dir  Spd
km/h
Gust
km/h
Spd
kts
Gust
kts
05/08:00pm 24.5 25.5 17.7 66 4.3 WSW 9 13 5 7 1009.5 1009.2 0.0
05/07:30pm 24.9 25.4 17.4 63 4.7 W 11 13 6 7 1009.2 1008.7 0.0
05/07:00pm 25.6 26.0 17.3 60 5.2 W 11 15 6 8 1009.1 1008.8 0.0
05/06:30pm 26.6 26.6 17.1 56 5.9 WSW 13 20 7 11 1009.0 1008.7 0.0
05/06:00pm 27.3 26.7 16.6 52 6.7 W 15 20 8 11 1008.9 1008.6 0.0
05/05:30pm 27.5 26.8 16.5 51 6.8 W 15 22 8 12 1008.8 1008.5 0.0
05/05:00pm 27.7 26.8 16.9 51 6.8 W 17 24 9 13 1008.9 1008.6 0.0
05/04:30pm 27.8 26.7 16.4 50 7.1 WNW 17 24 9 13 1009.0 1008.5 0.0
05/04:00pm 28.3 27.5 17.2 51 7.0 WNW 17 24 9 13 1009.1 1008.8 0.0
05/03:30pm 28.1 27.1 16.7 50 7.1 W 17 22 9 12 1009.1 1008.8 0.0
05/03:00pm 28.3 27.4 16.9 50 7.1 W 17 30 9 16 1009.4 1009.1 0.0
05/02:30pm 28.3 27.8 16.9 50 7.1 WNW 15 24 8 13 1009.8 1009.5 0.0
05/02:00pm 28.1 27.6 17.0 51 7.0 WNW 15 30 8 16 1010.1 1009.8 0.0
05/01:30pm 27.7 27.2 16.9 51 6.8 WNW 15 26 8 14 1010.6 1010.1 0.0
05/01:00pm 28.2 28.3 17.4 52 6.8 W 13 22 7 12 1011.0 1010.7 0.0
05/12:30pm 27.7 27.4 17.3 53 6.5 W 15 20 8 11 1011.5 1011.2 0.0
05/12:00pm 27.8 27.5 17.3 52 6.6 WSW 15 24 8 13 1011.9 1011.6 0.0
05/11:30am 27.2 26.9 17.4 55 6.2 WNW 15 22 8 12 1012.3 1012.0 0.0
05/11:00am 26.4 26.6 17.7 58 5.5 WSW 13 20 7 11 1012.7 1012.4 0.0
05/10:30am 26.1 26.4 18.8 64 4.7 SW 15 22 8 12 1012.7 1012.2 0.0
05/10:00am 25.0 25.3 18.7 68 4.0 SW 15 22 8 12 1012.8 1012.5 0.0
05/09:30am 24.2 24.7 19.3 74 3.1 SW 15 22 8 12 1012.7 1012.4 0.0
05/09:00am 23.4 24.0 19.5 79 2.5 SSW 15 19 8 10 1012.3 1012.0 0.0
05/08:30am 22.1 23.7 20.0 88 1.4 SSW 11 17 6 9 1011.9 1011.6 0.0
05/08:00am 20.8 23.0 20.5 98 0.2 SSW 9 15 5 8 1011.7 1011.4 0.0
05/07:30am 20.3 22.5 20.3 100 0.0 SSW 9 11 5 6 1011.4 1010.9 0.0
05/07:00am 20.1 22.4 19.8 98 0.2 SSW 7 11 4 6 1011.2 1010.9 0.0
05/06:30am 20.1 21.8 19.4 96 0.4 SSW 9 11 5 6 1011.1 1010.8 0.0
05/06:00am 20.5 22.0 19.0 91 0.9 SW 9 11 5 6 1010.9 1010.6 0.0
05/05:30am 20.1 22.5 20.1 100 0.0 SW 7 9 4 5 1010.9 1010.6 0.0
05/05:00am 18.8 21.2 18.8 100 0.0 SW 4 6 2 3 1010.8 1010.5 0.0
05/04:30am 18.8 22.0 18.8 100 0.0 CALM 0 0 0 0 1010.9 1010.4 0.0
05/04:00am 18.7 21.8 18.7 100 0.0 CALM 0 0 0 0 1011.4 1011.1 0.0
05/03:30am 18.9 22.1 18.9 100 0.0 CALM 0 0 0 0 1011.5 1011.2 0.0
05/03:00am 19.3 22.6 19.1 99 0.1 CALM 0 0 0 0 1011.7 1011.4 0.0
05/02:30am 19.0 21.9 18.2 95 0.5 CALM 0 0 0 0 1012.0 1011.7 0.0
05/02:00am 19.4 22.5 18.6 95 0.5 CALM 0 0 0 0 1012.2 1011.9 0.0
05/01:30am 19.4 22.3 18.2 93 0.7 CALM 0 0 0 0 1012.4 1011.9 0.0
05/01:00am 19.4 21.5 18.2 93 0.7 WSW 4 6 2 3 1012.7 1012.4 0.0
05/12:30am 19.4 22.5 18.6 95 0.5 CALM 0 0 0 0 1012.7 1012.4 0.0
05/12:00am 19.7 23.2 19.5 99 0.1 CALM 0 0 0 0 1012.9 1012.6 0.0
 
Date/Time
CST
Temp
°C
App
Temp
°C
Dew
Point
°C
Rel
Hum
%
Delta-T
°C
Wind Press
QNH
hPa
Press
MSL
hPa
Rain since
9am
mm
Dir  Spd
km/h
Gust
km/h
Spd
kts
Gust
kts
04/11:30pm 19.9 23.3 19.4 97 0.3 CALM 0 0 0 0 1012.9 1012.6 0.0
04/11:00pm 20.4 23.9 19.6 95 0.5 CALM 0 0 0 0 1012.9 1012.6 0.0
04/10:30pm 20.1 23.5 19.3 95 0.5 CALM 0 0 0 0 1012.7 1012.2 0.0
04/10:00pm 20.3 23.7 19.3 94 0.6 CALM 0 0 0 0 1012.5 1012.2 0.0
04/09:30pm 20.5 23.9 19.3 93 0.8 CALM 0 0 0 0 1012.4 1012.1 0.0
04/09:00pm 20.6 23.8 18.9 90 1.1 CALM 0 0 0 0 1012.1 1011.8 0.0
04/08:30pm 21.0 24.2 18.9 88 1.3 CALM 0 0 0 0 1011.8 1011.5 0.0
04/08:00pm 22.1 24.5 18.7 81 2.1 NW 4 6 2 3 1011.4 1011.1 0.0
04/07:30pm 23.0 24.8 18.7 77 2.7 NW 7 9 4 5 1010.9 1010.4 0.0
04/07:00pm 23.7 25.2 18.1 71 3.5 NNW 7 11 4 6 1010.6 1010.3 0.0
04/06:30pm 24.9 25.7 17.4 63 4.7 NNW 9 15 5 8 1010.4 1010.1 0.0
04/06:00pm 25.5 25.4 16.9 59 5.3 N 13 19 7 10 1009.9 1009.6 0.0
04/05:30pm 26.3 26.0 16.5 54 6.1 NW 13 20 7 11 1009.5 1009.2 0.0
04/05:00pm 26.1 25.0 16.4 55 6.0 NNW 17 24 9 13 1009.3 1009.0 0.0
04/04:30pm 26.5 25.8 17.3 57 5.8 NNW 17 24 9 13 1009.2 1008.7 0.0
04/04:00pm 27.0 26.0 15.7 50 6.9 NNW 15 24 8 13 1009.5 1009.2 0.0
04/03:30pm 28.4 27.4 15.7 46 7.8 NW 15 22 8 12 1009.8 1009.5 0.0
04/03:00pm 27.8 26.3 14.1 43 8.2 NNW 15 22 8 12 1010.0 1009.7 0.0
04/02:30pm 28.4 27.0 13.5 40 8.9 N 13 19 7 10 1010.5 1010.2 0.0
04/02:00pm 28.9 26.9 11.5 34 10.0 NNW 13 20 7 11 1010.9 1010.6 0.0
04/01:30pm 29.5 27.5 10.1 30 11.0 N 11 17 6 9 1011.4 1010.9 0.0
04/01:00pm 29.4 27.3 11.0 32 10.6 N 13 20 7 11 1011.7 1011.4 0.0
04/12:30pm 29.3 27.4 11.8 34 10.2 NW 13 43 7 23 1011.9 1011.6 0.0
04/12:00pm 29.2 27.5 9.9 30 10.9 SSW 9 11 5 6 1012.2 1011.9 0.0
04/11:30am 28.2 26.7 9.0 30 10.6 SW 7 15 4 8 1012.4 1012.1 0.0
04/11:00am 27.2 26.1 10.8 36 9.3 SW 7 13 4 7 1012.7 1012.4 0.0
04/10:30am 26.3 25.4 12.7 43 7.9 SSW 9 13 5 7 1012.9 1012.4 0.0
04/10:00am 25.6 24.9 13.1 46 7.3 SSW 9 13 5 7 1012.9 1012.6 0.0
04/09:30am 24.1 24.2 14.5 55 5.7 S 7 11 4 6 1012.8 1012.5 0.0
04/09:00am 22.5 22.7 15.8 66 4.0 S 9 11 5 6 1012.5 1012.2 0.0
04/08:30am 20.3 21.3 16.9 81 2.1 SSW 7 11 4 6 1012.1 1011.8 0.0
04/08:00am 19.0 19.2 16.8 87 1.3 SW 11 15 6 8 1011.9 1011.6 0.0
04/07:30am 19.3 20.4 18.0 92 0.8 SSW 9 13 5 7 1011.7 1011.2 0.0
04/07:00am 19.5 21.3 19.5 100 0.0 SSW 9 13 5 7 1011.5 1011.2 0.0
04/06:30am 18.4 20.1 18.4 100 0.0 SSW 7 9 4 5 1011.5 1011.2 0.0
04/06:00am 18.2 19.8 18.2 100 0.0 S 7 9 4 5 1011.3 1011.0 0.0
04/05:30am 18.5 20.2 18.5 100 0.0 S 7 9 4 5 1011.5 1011.2 0.0
04/05:00am 18.5 20.2 18.5 100 0.0 S 7 9 4 5 1011.4 1011.1 0.0
04/04:30am 19.5 21.7 19.5 100 0.0 SSW 7 9 4 5 1011.3 1010.8 0.0
04/04:00am 19.7 21.6 19.7 100 0.0 SSW 9 11 5 6 1011.5 1011.2 0.0
04/03:30am 19.9 21.9 19.9 100 0.0 SSW 9 11 5 6 1011.7 1011.4 0.0
04/03:00am 19.2 21.2 19.2 100 0.0 SSW 7 9 4 5 1011.9 1011.6 0.0
04/02:30am 18.9 21.0 18.9 100 0.0 SSW 6 6 3 3 1012.2 1011.9 0.0
04/02:00am 18.4 20.2 18.4 100 0.0 SSW 6 6 3 3 1012.3 1012.0 0.0
04/01:30am 18.7 21.8 18.7 100 0.0 CALM 0 0 0 0 1012.5 1012.0 0.0
04/01:00am 19.1 22.4 19.1 100 0.0 CALM 0 0 0 0 1012.7 1012.4 0.0
04/12:30am 19.2 22.5 19.2 100 0.0 CALM 0 0 0 0 1012.7 1012.4 0.0
04/12:00am 19.1 22.3 18.9 99 0.1 CALM 0 0 0 0 1012.7 1012.4 0.0
 
Date/Time
CST
Temp
°C
App
Temp
°C
Dew
Point
°C
Rel
Hum
%
Delta-T
°C
Wind Press
QNH
hPa
Press
MSL
hPa
Rain since
9am
mm
Dir  Spd
km/h
Gust
km/h
Spd
kts
Gust
kts
03/11:30pm 19.5 22.8 19.0 97 0.3 CALM 0 0 0 0 1012.8 1012.5 0.0
03/11:00pm 19.5 22.6 18.7 95 0.5 CALM 0 0 0 0 1012.7 1012.4 0.0
03/10:30pm 19.6 22.5 18.1 91 0.9 CALM 0 0 0 0 1012.7 1012.2 0.0
03/10:00pm 19.7 22.6 18.2 91 0.9 CALM 0 0 0 0 1012.6 1012.3 0.0
03/09:30pm 20.3 23.2 18.1 87 1.4 CALM 0 0 0 0 1012.5 1012.2 0.0
03/09:00pm 20.8 22.8 18.7 88 1.3 NNE 6 7 3 4 1012.3 1012.0 0.0
03/08:30pm 21.7 23.3 18.3 81 2.1 NNE 7 9 4 5 1011.9 1011.6 0.0
03/08:00pm 22.0 23.4 17.8 77 2.6 N 7 9 4 5 1011.4 1011.1 0.0
03/07:30pm 22.6 23.7 16.6 69 3.7 N 6 7 3 4 1011.1 1010.6 0.0
03/07:00pm 23.5 24.2 16.1 63 4.5 NNW 7 11 4 6 1010.9 1010.6 0.0
03/06:30pm 24.9 23.6 11.1 42 7.8 N 9 15 5 8 1010.6 1010.3 0.0
03/06:00pm 26.1 24.5 10.3 37 8.8 NNW 9 15 5 8 1010.4 1010.1 0.0
03/05:30pm 27.0 22.8 5.9 26 11.0 N 17 24 9 13 1010.1 1009.8 0.0
03/05:00pm 27.8 24.8 7.6 28 10.9 NNW 13 20 7 11 1009.9 1009.6 0.0
03/04:30pm 27.8 24.5 8.1 29 10.7 NNW 15 22 8 12 1009.8 1009.3 0.0
03/04:00pm 28.6 26.1 11.2 34 10.0 NNW 15 24 8 13 1009.9 1009.6 0.0
03/03:30pm 28.1 25.6 13.6 41 8.6 NNW 19 26 10 14 1010.1 1009.8 0.0
03/03:00pm 29.0 26.4 12.0 35 9.9 N 17 24 9 13 1010.4 1010.1 0.0
03/02:30pm 28.5 25.8 11.6 35 9.8 N 17 22 9 12 1011.0 1010.7 0.0
03/02:00pm 28.5 26.7 12.0 36 9.6 NNE 13 22 7 12 1011.5 1011.2 0.0
03/01:30pm 29.6 28.0 10.2 30 11.0 NE 9 17 5 9 1011.8 1011.3 0.0
03/01:00pm 28.9 27.1 8.0 27 11.4 W 7 13 4 7 1012.2 1011.9 0.0
03/12:30pm 28.7 28.1 14.5 42 8.6 ESE 11 17 6 9 1012.4 1012.1 0.0
03/12:00pm 28.4 27.0 9.6 31 10.5 S 7 17 4 9 1013.2 1012.9 0.0
03/11:30am 27.8 27.5 13.3 40 8.6 NW 7 9 4 5 1013.7 1013.4 0.0
03/11:00am 27.0 28.4 16.3 52 6.6 SE 4 9 2 5 1014.0 1013.7 0.0
03/10:30am 24.7 25.6 16.7 61 4.9 SW 7 11 4 6 1014.3 1013.8 0.0
03/10:00am 23.9 25.5 19.2 75 3.0 SSW 9 11 5 6 1014.4 1014.1 0.0
03/09:30am 22.6 24.9 19.4 82 2.0 S 6 9 3 5 1014.1 1013.8 0.0
03/09:00am 21.0 24.0 20.8 99 0.1 SSE 6 7 3 4 1013.8 1013.5 0.0
03/08:30am 19.4 21.7 19.4 100 0.0 S 6 7 3 4 1013.6 1013.3 0.0
03/08:00am 18.1 19.8 18.1 100 0.0 S 6 7 3 4 1013.4 1013.1 0.0
03/07:30am 17.9 19.5 17.9 100 0.0 S 6 7 3 4 1013.0 1012.5 0.0
03/07:00am 17.9 20.3 17.9 100 0.0 S 2 6 1 3 1012.8 1012.5 0.0
03/06:30am 18.3 20.1 18.3 100 0.0 S 6 7 3 4 1012.6 1012.3 0.0
03/06:00am 18.0 19.7 18.0 100 0.0 S 6 6 3 3 1012.4 1012.1 0.0
03/05:30am 18.4 20.2 18.4 100 0.0 S 6 7 3 4 1012.4 1012.1 0.0
03/05:00am 18.4 20.2 18.4 100 0.0 S 6 7 3 4 1012.3 1012.0 0.0
03/04:30am 18.3 19.9 18.3 100 0.0 S 7 9 4 5 1012.2 1011.7 0.0
03/04:00am 18.3 19.9 18.3 100 0.0 SSW 7 7 4 4 1012.1 1011.8 0.0
03/03:30am 18.8 20.8 18.8 100 0.0 SW 6 7 3 4 1012.3 1012.0 0.0
03/03:00am 18.4 20.1 18.1 98 0.2 SSE 6 7 3 4 1012.5 1012.2 0.0
03/02:30am 19.3 21.4 19.3 100 0.0 SSE 7 11 4 6 1012.7 1012.4 0.0
03/02:00am 19.5 21.7 19.5 100 0.0 SE 7 9 4 5 1013.0 1012.7 0.0
03/01:30am 19.1 21.1 19.1 100 0.0 SE 7 9 4 5 1013.2 1012.7 0.0
03/01:00am 18.7 20.5 18.7 100 0.0 SE 7 9 4 5 1013.5 1013.2 0.0
03/12:30am 19.1 21.1 19.1 100 0.0 ESE 7 9 4 5 1013.5 1013.2 0.0
03/12:00am 18.7 20.4 18.5 99 0.1 ESE 7 9 4 5 1013.5 1013.2 0.0
 
Date/Time
CST
Temp
°C
App
Temp
°C
Dew
Point
°C
Rel
Hum
%
Delta-T
°C
Wind Press
QNH
hPa
Press
MSL
hPa
Rain since
9am
mm
Dir  Spd
km/h
Gust
km/h
Spd
kts
Gust
kts
02/11:30pm 18.9 20.8 18.6 98 0.2 E 6 7 3 4 1013.5 1013.2 0.0
02/11:00pm 19.7 21.6 19.0 96 0.4 ESE 7 9 4 5 1013.4 1013.1 0.0
02/10:30pm 19.2 20.8 17.9 92 0.8 E 6 7 3 4 1013.3 1012.8 0.0
02/10:00pm 19.6 21.1 17.7 89 1.2 E 6 9 3 5 1013.2 1012.9 0.0

Other formats

Comma delimited format used in spreadsheet applications
http://www.bom.gov.au/fwo/IDD60801/IDD60801.95101.axf

JavaScript Object Notation format (JSON) in row-major order
http://www.bom.gov.au/fwo/IDD60801/IDD60801.95101.json

Data quality

Most of these data are generated automatically and are frequently updated. Quality checks on data are not normally performed. It is possible for incorrect values to appear. Refer to information at About Latest Weather Observations and please check the disclaimer before using these data.